createdAt,value
2023-04-07T00:00:27.741Z,7.80
2023-04-07T00:01:32.662Z,7.43
2023-04-07T00:02:35.543Z,7.55
2023-04-07T00:03:40.832Z,7.55
2023-04-07T00:04:43.925Z,6.55
2023-04-07T00:05:48.008Z,7.00
2023-04-07T00:06:51.379Z,7.60
2023-04-07T00:07:57.090Z,7.18
2023-04-07T00:09:01.572Z,6.75
2023-04-07T00:10:22.948Z,6.63
2023-04-07T00:11:53.971Z,6.60
2023-04-07T00:12:59.391Z,6.03
2023-04-07T00:14:02.770Z,6.43
2023-04-07T00:15:05.518Z,6.25
2023-04-07T00:16:08.369Z,6.80
2023-04-07T00:17:13.225Z,7.00
2023-04-07T00:18:18.319Z,6.40
2023-04-07T00:19:21.493Z,5.65
2023-04-07T00:20:25.797Z,6.05
2023-04-07T00:21:28.433Z,6.70
2023-04-07T00:22:32.834Z,6.13
2023-04-07T00:23:36.052Z,6.32
2023-04-07T00:24:40.451Z,5.72
2023-04-07T00:25:43.532Z,6.07
2023-04-07T00:26:46.090Z,6.13
2023-04-07T00:27:51.381Z,6.30
2023-04-07T00:28:54.199Z,6.47
2023-04-07T00:29:57.881Z,6.10
2023-04-07T00:31:00.421Z,5.50
2023-04-07T00:32:03.544Z,6.25
2023-04-07T00:33:09.502Z,6.00
2023-04-07T00:34:12.282Z,5.93
2023-04-07T00:35:17.784Z,5.35
2023-04-07T00:36:20.250Z,5.35
2023-04-07T00:37:22.773Z,4.88
2023-04-07T00:38:26.688Z,5.63
2023-04-07T00:39:31.968Z,6.10
2023-04-07T00:40:34.698Z,5.22
2023-04-07T00:41:37.094Z,5.53
2023-04-07T00:42:40.359Z,5.13
2023-04-07T00:43:45.974Z,5.30
2023-04-07T00:44:48.540Z,4.40
2023-04-07T00:45:50.943Z,4.63
2023-04-07T00:46:54.125Z,4.97
2023-04-07T00:47:58.480Z,5.20
2023-04-07T00:49:01.401Z,4.95
2023-04-07T00:50:04.885Z,4.90
2023-04-07T00:51:07.456Z,4.90
2023-04-07T00:52:11.765Z,4.05
2023-04-07T00:53:14.353Z,4.78
2023-04-07T00:54:19.240Z,4.85
2023-04-07T00:55:21.745Z,4.93
2023-04-07T00:56:25.430Z,4.97
2023-04-07T00:57:27.873Z,4.55
2023-04-07T00:58:31.593Z,5.00
2023-04-07T00:59:34.870Z,4.70
2023-04-07T01:00:45.831Z,5.35
2023-04-07T01:01:51.499Z,4.72
2023-04-07T01:03:09.493Z,4.55
2023-04-07T01:04:34.802Z,5.20
2023-04-07T01:05:53.173Z,4.63
2023-04-07T01:07:04.026Z,4.05
2023-04-07T01:08:36.344Z,4.28
2023-04-07T01:09:55.442Z,4.47
2023-04-07T01:11:17.609Z,4.63
2023-04-07T01:12:49.175Z,4.45
2023-04-07T01:13:54.475Z,3.95
2023-04-07T01:15:12.423Z,4.60
2023-04-07T01:16:39.560Z,4.03
2023-04-07T01:17:52.945Z,4.50
2023-04-07T01:19:03.030Z,3.97
2023-04-07T01:20:11.326Z,4.40
2023-04-07T01:21:18.565Z,3.90
2023-04-07T01:22:27.513Z,3.95
2023-04-07T01:23:57.173Z,3.90
2023-04-07T01:25:23.762Z,3.85
2023-04-07T01:26:34.973Z,3.72
2023-04-07T01:27:52.328Z,3.95
2023-04-07T01:29:26.286Z,4.65
2023-04-07T01:30:35.273Z,4.50
2023-04-07T01:31:41.764Z,3.83
2023-04-07T01:32:46.928Z,4.40
2023-04-07T01:33:51.151Z,3.70
2023-04-07T01:34:55.487Z,3.58
2023-04-07T01:36:01.444Z,4.13
2023-04-07T01:37:08.015Z,4.13
2023-04-07T01:38:11.184Z,4.15
2023-04-07T01:39:14.378Z,4.15
2023-04-07T01:40:21.884Z,4.03
2023-04-07T01:41:25.369Z,3.70
2023-04-07T01:42:27.949Z,4.10
2023-04-07T01:43:31.773Z,3.58
2023-04-07T01:44:35.672Z,3.80
2023-04-07T01:45:39.710Z,3.85
2023-04-07T01:46:42.154Z,3.85
2023-04-07T01:47:46.339Z,4.28
2023-04-07T01:48:50.434Z,4.13
2023-04-07T01:49:54.110Z,3.38
2023-04-07T01:50:57.612Z,3.35
2023-04-07T01:52:01.185Z,3.83
2023-04-07T01:53:04.830Z,3.58
2023-04-07T01:54:08.660Z,3.92
2023-04-07T01:55:13.592Z,3.95
2023-04-07T01:56:25.273Z,3.70
2023-04-07T01:57:29.490Z,3.42
2023-04-07T01:58:37.328Z,3.60
2023-04-07T01:59:42.328Z,3.70
2023-04-07T02:00:46.640Z,3.72
2023-04-07T02:01:53.235Z,3.75
2023-04-07T02:03:02.643Z,3.67
2023-04-07T02:04:24.759Z,3.38
2023-04-07T02:05:30.188Z,3.72
2023-04-07T02:06:46.622Z,3.45
2023-04-07T02:08:06.276Z,3.67
2023-04-07T02:09:15.490Z,3.55
2023-04-07T02:10:23.848Z,3.22
2023-04-07T02:11:29.422Z,3.35
2023-04-07T02:12:39.273Z,3.47
2023-04-07T02:13:53.719Z,3.63
2023-04-07T02:14:58.622Z,3.53
2023-04-07T02:16:02.715Z,3.45
2023-04-07T02:17:06.032Z,3.38
2023-04-07T02:18:10.797Z,2.78
2023-04-07T02:19:14.414Z,2.70
2023-04-07T02:20:17.759Z,3.42
2023-04-07T02:21:21.342Z,2.95
2023-04-07T02:22:23.735Z,88.70
2023-04-07T02:23:27.146Z,36.03
2023-04-07T02:24:31.385Z,33.80
2023-04-07T02:25:34.357Z,20.42
2023-04-07T02:26:36.790Z,13.48
2023-04-07T02:27:40.271Z,10.00
2023-04-07T02:28:42.778Z,8.68
2023-04-07T02:29:49.150Z,7.68
2023-04-07T02:30:51.883Z,7.05
2023-04-07T02:31:56.423Z,6.10
2023-04-07T02:32:59.261Z,5.88
2023-04-07T02:34:04.664Z,6.05
2023-04-07T02:35:10.149Z,5.82
2023-04-07T02:36:13.187Z,5.25
2023-04-07T02:37:15.911Z,5.22
2023-04-07T02:38:18.430Z,5.72
2023-04-07T02:39:20.973Z,5.43
2023-04-07T02:40:23.758Z,5.45
2023-04-07T02:41:29.052Z,4.90
2023-04-07T02:42:32.249Z,5.00
2023-04-07T02:43:34.625Z,5.28
2023-04-07T02:44:37.192Z,4.95
2023-04-07T02:45:41.122Z,4.47
2023-04-07T02:46:43.562Z,4.43
2023-04-07T02:47:46.055Z,4.93
2023-04-07T02:48:52.182Z,4.78
2023-04-07T02:49:54.617Z,4.50
2023-04-07T02:50:59.252Z,4.07
2023-04-07T02:52:02.225Z,4.63
2023-04-07T02:53:05.693Z,4.57
2023-04-07T02:54:08.355Z,4.30
2023-04-07T02:55:19.029Z,3.70
2023-04-07T02:57:27.482Z,4.05
2023-04-07T02:58:33.811Z,3.88
2023-04-07T02:59:37.009Z,3.90
2023-04-07T03:00:40.278Z,3.90
2023-04-07T03:01:52.275Z,3.28
2023-04-07T03:02:54.929Z,3.13
2023-04-07T03:03:59.091Z,3.67
2023-04-07T03:05:04.293Z,3.83
2023-04-07T03:06:07.935Z,3.67
2023-04-07T03:07:16.790Z,3.70
2023-04-07T03:08:20.528Z,4.15
2023-04-07T03:09:23.133Z,3.75
2023-04-07T03:10:26.306Z,3.50
2023-04-07T03:11:28.733Z,3.30
2023-04-07T03:12:35.561Z,3.15
2023-04-07T03:13:38.208Z,3.53
2023-04-07T03:14:40.597Z,3.50
2023-04-07T03:15:44.025Z,3.28
2023-04-07T03:16:47.603Z,2.85
2023-04-07T03:17:51.311Z,3.28
2023-04-07T03:18:54.445Z,3.63
2023-04-07T03:19:58.103Z,3.28
2023-04-07T03:21:04.527Z,3.28
2023-04-07T03:22:07.433Z,3.30
2023-04-07T03:23:13.063Z,3.53
2023-04-07T03:24:15.992Z,3.38
2023-04-07T03:25:18.454Z,3.03
2023-04-07T03:26:21.825Z,2.60
2023-04-07T03:27:25.286Z,3.15
2023-04-07T03:28:27.730Z,3.50
2023-04-07T03:29:30.539Z,3.00
2023-04-07T03:30:33.277Z,3.17
2023-04-07T03:31:37.558Z,3.28
2023-04-07T03:32:40.353Z,2.28
2023-04-07T03:33:42.763Z,3.03
2023-04-07T03:34:46.843Z,3.30
2023-04-07T03:35:49.818Z,3.03
2023-04-07T03:36:53.458Z,21.55
2023-04-07T03:37:57.405Z,6.63
2023-04-07T03:39:01.551Z,5.00
2023-04-07T03:40:04.007Z,4.30
2023-04-07T03:41:10.369Z,3.92
2023-04-07T03:42:13.092Z,3.63
2023-04-07T03:43:16.465Z,3.65
2023-04-07T03:44:20.355Z,3.95
2023-04-07T03:45:22.846Z,3.75
2023-04-07T03:46:27.708Z,4.15
2023-04-07T03:47:30.582Z,3.42
2023-04-07T03:48:36.796Z,3.47
2023-04-07T03:49:44.149Z,3.78
2023-04-07T03:50:47.238Z,3.60
2023-04-07T03:51:53.102Z,3.72
2023-04-07T03:52:56.213Z,3.63
2023-04-07T03:54:02.244Z,3.13
2023-04-07T03:55:12.881Z,3.63
2023-04-07T03:56:17.217Z,3.63
2023-04-07T03:57:23.121Z,3.60
2023-04-07T03:58:27.106Z,3.63
2023-04-07T03:59:31.345Z,3.75
2023-04-07T04:00:38.489Z,3.60
2023-04-07T04:01:45.933Z,3.70
2023-04-07T04:02:51.703Z,3.85
2023-04-07T04:03:56.192Z,3.60
2023-04-07T04:05:06.493Z,4.32
2023-04-07T04:06:08.906Z,4.18
2023-04-07T04:07:12.234Z,3.85
2023-04-07T04:08:27.260Z,4.20
2023-04-07T04:09:29.907Z,3.35
2023-04-07T04:10:33.483Z,3.70
2023-04-07T04:11:36.493Z,3.88
2023-04-07T04:12:45.436Z,3.50
2023-04-07T04:13:50.476Z,3.88
2023-04-07T04:14:53.906Z,3.65
2023-04-07T04:15:57.250Z,57.33
2023-04-07T04:17:00.579Z,92.78
2023-04-07T04:18:10.341Z,63.50
2023-04-07T04:19:13.026Z,52.88
2023-04-07T04:20:17.813Z,44.13
2023-04-07T04:21:27.338Z,39.28
2023-04-07T04:22:30.532Z,35.42
2023-04-07T04:23:34.262Z,25.48
2023-04-07T04:24:37.485Z,21.02
2023-04-07T04:25:40.845Z,18.45
2023-04-07T04:26:46.208Z,15.70
2023-04-07T04:27:49.380Z,13.98
2023-04-07T04:28:55.959Z,13.40
2023-04-07T04:29:58.722Z,12.25
2023-04-07T04:31:11.316Z,12.18
2023-04-07T04:32:18.150Z,12.68
2023-04-07T04:33:20.823Z,10.23
2023-04-07T04:34:29.347Z,12.27
2023-04-07T04:35:35.477Z,10.35
2023-04-07T04:36:42.984Z,34.25
2023-04-07T04:37:45.634Z,109.72
2023-04-07T04:38:49.655Z,80.03
2023-04-07T04:39:54.854Z,39.90
2023-04-07T04:41:00.649Z,38.03
2023-04-07T04:42:06.449Z,33.90
2023-04-07T04:43:11.418Z,28.60
2023-04-07T04:44:16.085Z,28.23
2023-04-07T04:45:19.485Z,26.45
2023-04-07T04:46:26.634Z,23.17
2023-04-07T04:47:30.714Z,21.23
2023-04-07T04:48:38.447Z,20.35
2023-04-07T04:49:48.158Z,20.90
2023-04-07T04:50:53.298Z,20.58
2023-04-07T04:51:57.241Z,20.05
2023-04-07T04:53:00.090Z,19.15
2023-04-07T04:54:06.915Z,18.90
2023-04-07T04:55:32.826Z,17.52
2023-04-07T04:56:35.915Z,17.77
2023-04-07T04:57:40.122Z,20.88
2023-04-07T04:58:46.758Z,17.83
2023-04-07T05:00:18.987Z,18.25
2023-04-07T05:01:30.533Z,17.08
2023-04-07T05:02:47.215Z,15.73
2023-04-07T05:04:03.174Z,14.77
2023-04-07T05:05:07.311Z,14.35
2023-04-07T05:06:13.306Z,14.73
2023-04-07T05:07:21.277Z,14.85
2023-04-07T05:08:24.324Z,16.08
2023-04-07T05:09:38.473Z,14.82
2023-04-07T05:10:46.144Z,12.45
2023-04-07T05:11:52.933Z,11.35
2023-04-07T05:13:00.284Z,10.60
2023-04-07T05:14:02.772Z,9.85
2023-04-07T05:15:06.755Z,9.68
2023-04-07T05:16:09.718Z,11.80
2023-04-07T05:17:13.054Z,10.13
2023-04-07T05:18:15.592Z,10.20
2023-04-07T05:19:18.048Z,9.85
2023-04-07T05:20:21.030Z,10.55
2023-04-07T05:21:23.673Z,10.10
2023-04-07T05:22:28.487Z,11.10
2023-04-07T05:23:30.937Z,11.23
2023-04-07T05:24:33.361Z,10.57
2023-04-07T05:25:37.486Z,12.30
2023-04-07T05:26:45.038Z,11.93
2023-04-07T05:27:47.874Z,12.15
2023-04-07T05:28:51.965Z,11.38
2023-04-07T05:29:57.653Z,11.27
2023-04-07T05:31:07.413Z,12.05
2023-04-07T05:32:11.478Z,12.23
2023-04-07T05:33:14.334Z,11.55
2023-04-07T05:34:26.116Z,11.30
2023-04-07T05:35:31.616Z,11.40
2023-04-07T05:36:35.857Z,12.23
2023-04-07T05:37:38.266Z,11.40
2023-04-07T05:38:42.219Z,12.15
2023-04-07T05:39:49.305Z,11.15
2023-04-07T05:40:51.767Z,11.73
2023-04-07T05:42:04.714Z,12.18
2023-04-07T05:43:07.588Z,11.02
2023-04-07T05:44:13.796Z,11.60
2023-04-07T05:45:17.776Z,11.15
2023-04-07T05:46:23.255Z,12.02
2023-04-07T05:47:29.842Z,11.20
2023-04-07T05:48:32.336Z,10.98
2023-04-07T05:49:38.104Z,11.68
2023-04-07T05:50:43.818Z,11.23
2023-04-07T05:51:49.496Z,11.45
2023-04-07T05:52:52.347Z,11.40
2023-04-07T05:54:01.809Z,11.30
2023-04-07T05:55:05.084Z,11.02
2023-04-07T05:56:08.098Z,11.13
2023-04-07T05:57:28.816Z,11.33
2023-04-07T05:58:32.777Z,12.63
2023-04-07T05:59:37.058Z,12.57
2023-04-07T06:00:41.521Z,10.98
2023-04-07T06:01:49.543Z,11.18
2023-04-07T06:02:52.486Z,11.38
2023-04-07T06:03:56.420Z,10.23
2023-04-07T06:05:02.937Z,8.93
2023-04-07T06:06:05.494Z,9.45
2023-04-07T06:07:08.103Z,8.30
2023-04-07T06:08:11.014Z,8.23
2023-04-07T06:09:13.385Z,10.30
2023-04-07T06:10:16.057Z,15.07
2023-04-07T06:11:20.570Z,14.23
2023-04-07T06:12:22.938Z,11.55
2023-04-07T06:13:25.493Z,10.55
2023-04-07T06:14:29.090Z,10.00
2023-04-07T06:15:33.750Z,10.52
2023-04-07T06:16:36.395Z,10.38
2023-04-07T06:17:38.955Z,10.52
2023-04-07T06:18:42.112Z,10.57
2023-04-07T06:19:44.788Z,9.75
2023-04-07T06:20:47.358Z,9.73
2023-04-07T06:21:49.836Z,11.00
2023-04-07T06:22:52.393Z,10.52
2023-04-07T06:23:54.970Z,11.07
2023-04-07T06:24:57.431Z,10.93
2023-04-07T06:26:00.479Z,10.20
2023-04-07T06:27:05.308Z,10.52
2023-04-07T06:28:10.266Z,10.32
2023-04-07T06:29:13.094Z,9.95
2023-04-07T06:30:25.856Z,10.60
2023-04-07T06:31:28.652Z,9.93
2023-04-07T06:32:32.132Z,10.13
2023-04-07T06:33:34.629Z,9.55
2023-04-07T06:34:38.255Z,10.48
2023-04-07T06:35:41.393Z,9.52
2023-04-07T06:36:44.360Z,9.25
2023-04-07T06:37:47.637Z,9.95
2023-04-07T06:38:51.654Z,9.98
2023-04-07T06:39:54.480Z,9.52
2023-04-07T06:41:19.359Z,9.60
2023-04-07T06:42:36.501Z,9.35
2023-04-07T06:44:18.004Z,9.57
2023-04-07T06:45:44.163Z,9.05
2023-04-07T06:46:56.552Z,9.45
2023-04-07T06:47:59.626Z,7.65
2023-04-07T06:49:08.010Z,7.32
2023-04-07T06:50:13.314Z,6.55
2023-04-07T06:51:19.751Z,6.50
2023-04-07T06:52:27.262Z,12.85
2023-04-07T06:53:34.573Z,10.77
2023-04-07T06:54:48.634Z,10.38
2023-04-07T06:56:02.337Z,10.37
2023-04-07T06:57:06.722Z,11.23
2023-04-07T06:58:09.283Z,9.88
2023-04-07T06:59:11.791Z,10.45
2023-04-07T07:00:15.107Z,9.80
2023-04-07T07:01:17.601Z,9.05
2023-04-07T07:02:20.575Z,9.73
2023-04-07T07:03:23.873Z,9.05
2023-04-07T07:04:29.374Z,9.80
2023-04-07T07:05:32.326Z,9.43
2023-04-07T07:06:34.914Z,9.95
2023-04-07T07:07:37.960Z,9.23
2023-04-07T07:08:40.518Z,8.80
2023-04-07T07:09:42.955Z,9.15
2023-04-07T07:10:45.554Z,10.05
2023-04-07T07:11:48.081Z,8.55
2023-04-07T07:12:51.741Z,9.98
2023-04-07T07:13:54.707Z,8.98
2023-04-07T07:14:59.749Z,9.30
2023-04-07T07:16:03.168Z,9.27
2023-04-07T07:17:06.052Z,9.07
2023-04-07T07:18:12.095Z,9.05
2023-04-07T07:19:15.068Z,9.32
2023-04-07T07:20:17.803Z,9.00
2023-04-07T07:21:20.966Z,9.82
2023-04-07T07:22:23.441Z,13.45
2023-04-07T07:23:25.915Z,8.82
2023-04-07T07:24:29.186Z,7.07
2023-04-07T07:25:31.778Z,6.95
2023-04-07T07:26:34.299Z,6.90
2023-04-07T07:27:36.829Z,6.40
2023-04-07T07:28:39.390Z,5.68
2023-04-07T07:29:41.854Z,5.63
2023-04-07T07:30:44.340Z,4.53
2023-04-07T07:31:46.742Z,5.28
2023-04-07T07:32:49.818Z,5.18
2023-04-07T07:33:52.970Z,14.48
2023-04-07T07:34:55.364Z,163.25
2023-04-07T07:35:57.822Z,64.32
2023-04-07T07:37:00.442Z,52.47
2023-04-07T07:38:05.390Z,44.53
2023-04-07T07:39:07.890Z,40.92
2023-04-07T07:40:11.008Z,40.72
2023-04-07T07:41:13.439Z,36.00
2023-04-07T07:42:15.855Z,29.75
2023-04-07T07:43:19.118Z,25.70
2023-04-07T07:44:22.768Z,20.25
2023-04-07T07:45:25.165Z,18.88
2023-04-07T07:46:27.755Z,15.75
2023-04-07T07:47:31.905Z,14.52
2023-04-07T07:48:34.410Z,13.10
2023-04-07T07:49:36.787Z,14.00
2023-04-07T07:50:39.808Z,13.35
2023-04-07T07:51:42.102Z,12.70
2023-04-07T07:52:44.491Z,12.05
2023-04-07T07:53:47.292Z,12.60
2023-04-07T07:54:51.100Z,11.93
2023-04-07T07:55:55.849Z,12.32
2023-04-07T07:56:58.174Z,12.25
2023-04-07T07:58:00.880Z,13.00
2023-04-07T07:59:06.540Z,12.18
2023-04-07T08:00:09.572Z,12.05
2023-04-07T08:01:17.786Z,11.55
2023-04-07T08:02:20.447Z,11.15
2023-04-07T08:03:23.183Z,12.43
2023-04-07T08:04:26.222Z,10.93
2023-04-07T08:05:28.636Z,11.93
2023-04-07T08:06:31.744Z,10.70
2023-04-07T08:07:34.802Z,11.93
2023-04-07T08:08:37.262Z,11.48
2023-04-07T08:09:39.606Z,11.73
2023-04-07T08:10:45.804Z,11.25
2023-04-07T08:11:49.842Z,12.20
2023-04-07T08:12:52.167Z,11.13
2023-04-07T08:13:56.821Z,10.95
2023-04-07T08:14:59.753Z,10.82
2023-04-07T08:16:02.306Z,11.25
2023-04-07T08:17:04.747Z,9.90
2023-04-07T08:18:07.234Z,10.20
2023-04-07T08:19:10.827Z,11.02
2023-04-07T08:20:13.896Z,10.77
2023-04-07T08:21:16.267Z,10.27
2023-04-07T08:22:21.007Z,12.95
2023-04-07T08:23:23.413Z,12.85
2023-04-07T08:24:25.772Z,14.77
2023-04-07T08:25:29.087Z,15.95
2023-04-07T08:26:32.398Z,17.70
2023-04-07T08:27:34.917Z,17.95
2023-04-07T08:28:37.431Z,17.67
2023-04-07T08:29:39.993Z,17.60
2023-04-07T08:30:45.448Z,16.92
2023-04-07T08:31:47.927Z,15.15
2023-04-07T08:32:50.569Z,14.45
2023-04-07T08:33:58.403Z,13.15
2023-04-07T08:35:00.869Z,12.80
2023-04-07T08:36:03.616Z,13.00
2023-04-07T08:37:06.175Z,11.73
2023-04-07T08:38:11.670Z,12.27
2023-04-07T08:39:14.116Z,12.18
2023-04-07T08:40:17.229Z,11.48
2023-04-07T08:41:30.852Z,12.23
2023-04-07T08:42:34.629Z,12.13
2023-04-07T08:43:39.279Z,11.77
2023-04-07T08:44:41.957Z,12.73
2023-04-07T08:45:46.591Z,11.65
2023-04-07T08:46:50.561Z,11.70
2023-04-07T08:47:59.083Z,12.00
2023-04-07T08:49:04.795Z,11.88
2023-04-07T08:50:10.016Z,11.95
2023-04-07T08:51:14.720Z,12.48
2023-04-07T08:52:22.739Z,11.90
2023-04-07T08:53:33.603Z,12.55
2023-04-07T08:54:36.977Z,16.50
2023-04-07T08:55:41.529Z,17.42
2023-04-07T08:56:44.668Z,13.45
2023-04-07T08:57:47.933Z,12.68
2023-04-07T08:58:52.155Z,12.88
2023-04-07T08:59:57.943Z,12.05
2023-04-07T09:01:00.688Z,11.50
2023-04-07T09:02:05.280Z,16.23
2023-04-07T09:04:11.464Z,12.48
2023-04-07T09:05:16.958Z,12.73
2023-04-07T09:06:19.458Z,12.65
2023-04-07T09:07:22.765Z,12.07
2023-04-07T09:08:25.464Z,12.52
2023-04-07T09:09:30.024Z,12.77
2023-04-07T09:10:33.028Z,12.23
2023-04-07T09:11:41.401Z,12.13
2023-04-07T09:12:47.671Z,12.45
2023-04-07T09:15:57.560Z,11.55
2023-04-07T09:17:04.100Z,11.48
2023-04-07T09:18:07.236Z,11.60
2023-04-07T09:19:10.062Z,12.18
2023-04-07T09:20:16.239Z,12.05
2023-04-07T09:21:19.050Z,12.27
2023-04-07T09:22:43.648Z,11.40
2023-04-07T09:23:48.165Z,11.20
2023-04-07T09:26:26.825Z,12.00
2023-04-07T09:27:29.554Z,11.20
2023-04-07T09:28:42.151Z,11.43
2023-04-07T09:29:47.049Z,11.68
2023-04-07T09:30:54.956Z,12.23
2023-04-07T09:31:58.079Z,10.77
2023-04-07T09:33:02.395Z,11.32
2023-04-07T09:34:23.640Z,10.82
2023-04-07T09:35:28.505Z,10.90
2023-04-07T09:36:42.298Z,10.48
2023-04-07T09:37:46.818Z,11.48
2023-04-07T09:38:49.268Z,10.98
2023-04-07T09:39:55.101Z,10.50
2023-04-07T09:41:07.674Z,10.93
2023-04-07T09:42:10.250Z,10.63
2023-04-07T09:43:17.213Z,10.98
2023-04-07T09:44:23.397Z,11.07
2023-04-07T09:45:34.644Z,10.43
2023-04-07T09:46:58.837Z,10.85
2023-04-07T09:48:21.733Z,10.68
2023-04-07T09:49:25.592Z,10.82
2023-04-07T09:50:33.785Z,10.88
2023-04-07T09:51:36.431Z,9.80
2023-04-07T09:52:52.478Z,9.85
2023-04-07T09:53:54.917Z,10.80
2023-04-07T09:54:58.027Z,10.27
2023-04-07T09:56:00.715Z,10.32
2023-04-07T09:57:05.305Z,10.13
2023-04-07T09:58:09.052Z,10.93
2023-04-07T09:59:11.933Z,10.18
2023-04-07T10:00:14.890Z,10.63
2023-04-07T10:01:19.391Z,10.18
2023-04-07T10:02:29.311Z,10.30
2023-04-07T10:03:34.105Z,10.43
2023-04-07T10:04:38.673Z,9.75
2023-04-07T10:05:43.269Z,10.02
2023-04-07T10:06:47.506Z,9.73
2023-04-07T10:07:50.761Z,10.43
2023-04-07T10:08:59.423Z,9.90
2023-04-07T10:10:15.995Z,9.73
2023-04-07T10:11:19.236Z,10.27
2023-04-07T10:12:24.434Z,10.30
2023-04-07T10:13:29.805Z,9.82
2023-04-07T10:14:39.181Z,11.23
2023-04-07T10:15:43.364Z,10.07
2023-04-07T10:16:48.051Z,9.55
2023-04-07T10:18:09.252Z,10.52
2023-04-07T10:19:14.946Z,9.85
2023-04-07T10:20:21.011Z,9.73
2023-04-07T10:21:26.235Z,9.40
2023-04-07T10:22:30.109Z,9.45
2023-04-07T10:23:49.302Z,9.50
2023-04-07T10:25:03.795Z,9.50
2023-04-07T10:26:08.159Z,9.15
2023-04-07T10:27:14.681Z,8.45
2023-04-07T10:28:19.153Z,8.88
2023-04-07T10:29:24.243Z,9.38
2023-04-07T10:30:32.322Z,8.90
2023-04-07T10:31:35.607Z,9.38
2023-04-07T10:32:49.171Z,8.05
2023-04-07T10:34:03.422Z,8.70
2023-04-07T10:36:01.142Z,8.60
2023-04-07T10:37:11.521Z,8.18
2023-04-07T10:38:18.762Z,8.70
2023-04-07T10:39:25.481Z,8.18
2023-04-07T10:40:30.070Z,8.73
2023-04-07T10:41:42.002Z,8.93
2023-04-07T10:42:54.843Z,8.02
2023-04-07T10:43:58.834Z,8.70
2023-04-07T10:45:04.707Z,7.95
2023-04-07T10:46:10.681Z,8.60
2023-04-07T10:47:14.257Z,8.30
2023-04-07T10:48:18.608Z,8.40
2023-04-07T10:49:23.742Z,7.18
2023-04-07T10:50:26.761Z,57.63
2023-04-07T10:51:37.648Z,49.83
2023-04-07T10:52:40.229Z,37.78
2023-04-07T10:54:22.309Z,28.67
2023-04-07T10:55:38.428Z,21.30
2023-04-07T10:57:02.904Z,17.60
2023-04-07T10:58:30.828Z,16.95
2023-04-07T10:59:34.183Z,14.27
2023-04-07T11:00:38.516Z,15.48
2023-04-07T11:01:40.969Z,16.25
2023-04-07T11:02:45.239Z,15.90
2023-04-07T11:03:57.413Z,15.63
2023-04-07T11:05:00.568Z,14.55
2023-04-07T11:06:11.376Z,13.90
2023-04-07T11:07:15.585Z,13.95
2023-04-07T11:08:34.569Z,14.55
2023-04-07T11:09:40.563Z,14.10
2023-04-07T11:10:48.362Z,14.75
2023-04-07T11:11:52.240Z,13.98
2023-04-07T11:12:59.642Z,14.02
2023-04-07T11:14:02.457Z,14.68
2023-04-07T11:15:22.292Z,13.25
2023-04-07T11:16:43.293Z,13.45
2023-04-07T11:17:46.728Z,13.15
2023-04-07T11:18:50.194Z,13.57
2023-04-07T11:19:53.743Z,13.75
2023-04-07T11:21:00.704Z,13.73
2023-04-07T11:22:29.255Z,12.30
2023-04-07T11:23:43.455Z,10.75
2023-04-07T11:24:47.292Z,12.10
2023-04-07T11:25:52.060Z,10.88
2023-04-07T11:26:54.719Z,11.23
2023-04-07T11:27:57.932Z,10.93
2023-04-07T11:29:02.224Z,11.07
2023-04-07T11:30:10.120Z,11.27
2023-04-07T11:31:21.292Z,10.52
2023-04-07T11:32:29.939Z,10.80
2023-04-07T11:33:35.084Z,10.75
2023-04-07T11:34:38.116Z,11.02
2023-04-07T11:35:50.863Z,10.57
2023-04-07T11:36:53.561Z,11.65
2023-04-07T11:38:01.684Z,10.43
2023-04-07T11:39:05.002Z,11.23
2023-04-07T11:40:09.125Z,9.60
2023-04-07T11:41:16.877Z,9.80
2023-04-07T11:42:41.130Z,9.95
2023-04-07T11:43:45.246Z,10.20
2023-04-07T11:44:48.836Z,9.68
2023-04-07T11:46:04.539Z,9.20
2023-04-07T11:47:07.120Z,9.93
2023-04-07T11:48:29.727Z,9.73
2023-04-07T11:49:32.478Z,9.70
2023-04-07T11:50:42.563Z,9.70
2023-04-07T11:51:45.437Z,10.15
2023-04-07T11:52:48.707Z,9.88
2023-04-07T11:53:57.442Z,9.07
2023-04-07T11:55:02.480Z,9.45
2023-04-07T11:56:06.774Z,9.52
2023-04-07T11:57:12.605Z,9.10
2023-04-07T11:58:15.562Z,9.27
2023-04-07T11:59:25.993Z,9.80
2023-04-07T12:00:28.370Z,9.70
2023-04-07T12:01:41.761Z,9.90
2023-04-07T12:02:44.797Z,10.40
2023-04-07T12:04:01.957Z,26.15
2023-04-07T12:05:06.672Z,97.85
2023-04-07T12:06:09.312Z,43.03
2023-04-07T12:07:12.354Z,37.33
2023-04-07T12:08:16.818Z,30.40
2023-04-07T12:09:28.164Z,28.10
2023-04-07T12:10:35.078Z,28.00
2023-04-07T12:11:37.689Z,24.38
2023-04-07T12:12:40.281Z,24.40
2023-04-07T12:13:42.719Z,26.20
2023-04-07T12:14:46.778Z,23.77
2023-04-07T12:15:49.213Z,23.38
2023-04-07T12:16:56.420Z,22.52
2023-04-07T12:18:03.167Z,21.52
2023-04-07T12:19:13.598Z,21.10
2023-04-07T12:20:17.106Z,21.67
2023-04-07T12:21:30.619Z,20.48
2023-04-07T12:22:36.128Z,20.58
2023-04-07T12:23:39.045Z,19.65
2023-04-07T12:24:42.182Z,19.48
2023-04-07T12:25:45.805Z,20.17
2023-04-07T12:26:48.265Z,19.70
2023-04-07T12:27:50.964Z,19.15
2023-04-07T12:28:54.077Z,18.55
2023-04-07T12:29:57.069Z,18.00
2023-04-07T12:30:59.653Z,17.02
2023-04-07T12:32:02.552Z,17.38
2023-04-07T12:33:05.765Z,17.55
2023-04-07T12:34:12.817Z,17.83
2023-04-07T12:35:15.415Z,16.27
2023-04-07T12:36:28.788Z,17.15
2023-04-07T12:37:32.046Z,16.77
2023-04-07T12:38:34.862Z,16.08
2023-04-07T12:39:37.399Z,16.60
2023-04-07T12:40:39.831Z,15.25
2023-04-07T12:41:42.232Z,16.25
2023-04-07T12:42:52.771Z,15.57
2023-04-07T12:43:55.393Z,16.65
2023-04-07T12:44:57.940Z,16.58
2023-04-07T12:46:00.415Z,16.58
2023-04-07T12:47:02.993Z,16.38
2023-04-07T12:48:06.455Z,15.77
2023-04-07T12:49:09.838Z,14.98
2023-04-07T12:50:12.453Z,16.67
2023-04-07T12:51:17.132Z,15.68
2023-04-07T12:52:19.575Z,14.40
2023-04-07T12:54:48.849Z,15.50
2023-04-07T12:55:51.432Z,14.13
2023-04-07T12:56:54.014Z,15.02
2023-04-07T12:58:00.728Z,15.85
2023-04-07T12:59:03.873Z,14.65
2023-04-07T13:00:09.909Z,14.85
2023-04-07T13:01:12.657Z,14.85
2023-04-07T13:02:17.978Z,14.52
2023-04-07T13:03:21.736Z,14.48
2023-04-07T13:04:26.960Z,14.57
2023-04-07T13:05:29.716Z,14.38
2023-04-07T13:06:40.975Z,14.43
2023-04-07T13:07:49.728Z,13.98
2023-04-07T13:08:53.434Z,13.27
2023-04-07T13:09:57.136Z,14.25
2023-04-07T13:10:59.661Z,13.73
2023-04-07T13:12:02.929Z,13.93
2023-04-07T13:13:06.592Z,15.02
2023-04-07T13:14:13.558Z,13.45
2023-04-07T13:15:16.504Z,13.38
2023-04-07T13:16:18.920Z,12.32
2023-04-07T13:17:21.466Z,13.95
2023-04-07T13:18:24.225Z,13.52
2023-04-07T13:19:31.093Z,13.27
2023-04-07T13:20:34.002Z,14.52
2023-04-07T13:21:46.654Z,14.80
2023-04-07T13:23:02.849Z,16.08
2023-04-07T13:24:08.304Z,10.70
2023-04-07T13:25:11.238Z,10.45
2023-04-07T13:26:21.991Z,12.27
2023-04-07T13:27:25.095Z,13.40
2023-04-07T13:28:35.162Z,13.77
2023-04-07T13:29:40.571Z,14.02
2023-04-07T13:30:49.243Z,14.00
2023-04-07T13:31:51.640Z,14.15
2023-04-07T13:32:54.238Z,14.02
2023-04-07T13:33:56.790Z,14.80
2023-04-07T13:35:00.356Z,14.30
2023-04-07T13:36:02.951Z,14.52
2023-04-07T13:37:13.999Z,14.00
2023-04-07T13:38:23.936Z,14.70
2023-04-07T13:39:26.657Z,13.35
2023-04-07T13:40:29.226Z,14.10
2023-04-07T13:41:31.773Z,13.35
2023-04-07T13:42:34.143Z,12.38
2023-04-07T13:43:36.507Z,12.25
2023-04-07T13:44:40.062Z,13.68
2023-04-07T13:45:51.080Z,12.60
2023-04-07T13:47:03.252Z,13.38
2023-04-07T13:48:06.182Z,12.65
2023-04-07T13:49:08.824Z,12.68
2023-04-07T13:50:11.392Z,12.25
2023-04-07T13:51:13.821Z,12.82
2023-04-07T13:52:16.623Z,12.93
2023-04-07T13:53:19.448Z,12.90
2023-04-07T13:54:22.656Z,12.88
2023-04-07T13:55:25.199Z,12.27
2023-04-07T13:56:32.873Z,12.35
2023-04-07T13:57:35.312Z,13.13
2023-04-07T13:58:39.832Z,12.00
2023-04-07T13:59:44.799Z,12.40
2023-04-07T14:00:47.307Z,12.52
2023-04-07T14:01:49.976Z,12.77
2023-04-07T14:02:52.691Z,11.95
2023-04-07T14:03:55.366Z,12.82
2023-04-07T14:04:58.184Z,12.52
2023-04-07T14:06:01.330Z,11.73
2023-04-07T14:07:03.875Z,12.65
2023-04-07T14:08:06.339Z,12.02
2023-04-07T14:09:08.782Z,11.25
2023-04-07T14:10:11.830Z,11.73
2023-04-07T14:11:17.710Z,12.52
2023-04-07T14:12:21.878Z,11.73
2023-04-07T14:13:24.818Z,11.35
2023-04-07T14:14:27.218Z,11.05
2023-04-07T14:15:29.875Z,11.60
2023-04-07T14:16:35.146Z,11.20
2023-04-07T14:17:37.571Z,11.23
2023-04-07T14:18:40.166Z,11.60
2023-04-07T14:19:42.657Z,11.02
2023-04-07T14:20:45.400Z,11.98
2023-04-07T14:21:48.043Z,11.18
2023-04-07T14:22:53.121Z,10.95
2023-04-07T14:23:56.170Z,11.38
2023-04-07T14:24:58.905Z,11.32
2023-04-07T14:26:01.848Z,11.43
2023-04-07T14:27:07.359Z,12.25